Time;durP1;ratioP1;P1;durP2;ratioP2;P2;SDS_P1;SDS_P2;PMS_P1;PMS_P2;Temp;Humidity;BMP_temperature;BMP_pressure;BME280_temperature;BME280_humidity;BME280_pressure;Samples;Min_cycle;Max_cycle;Signal;HPM_P1;HPM_P2
2020/12/28 00:00:47;;;;;;;1.55;1.25;;;6.80;99.90;;;;;;5040374;28;20498;-74
2020/12/28 00:03:13;;;;;;;1.27;1.17;;;6.80;99.90;;;;;;5045450;28;20482;-74
2020/12/28 00:05:39;;;;;;;1.83;1.30;;;6.90;99.90;;;;;;5045398;28;20079;-77
2020/12/28 00:08:05;;;;;;;1.83;1.42;;;6.80;99.90;;;;;;5044379;28;20037;-74
2020/12/28 00:10:30;;;;;;;1.38;1.27;;;6.80;99.90;;;;;;5043053;28;20083;-77
2020/12/28 00:12:56;;;;;;;1.50;1.40;;;6.80;99.90;;;;;;5045411;28;20041;-75
2020/12/28 00:15:27;;;;;;;1.85;1.38;;;6.80;99.90;;;;;;5042359;28;20366;-75
2020/12/28 00:17:54;;;;;;;2.65;1.67;;;6.80;99.90;;;;;;5043161;28;20022;-77
2020/12/28 00:20:22;;;;;;;2.47;1.65;;;6.80;99.90;;;;;;5047253;28;20033;-78
2020/12/28 00:22:48;;;;;;;1.70;1.60;;;6.80;99.90;;;;;;5041331;28;20028;-77
2020/12/28 00:25:14;;;;;;;2.63;1.60;;;6.90;99.90;;;;;;5047081;28;20082;-76
2020/12/28 00:27:40;;;;;;;2.28;1.70;;;6.90;99.90;;;;;;5049107;28;20036;-75
2020/12/28 00:30:06;;;;;;;1.80;1.30;;;6.80;99.90;;;;;;5041187;28;20021;-77
2020/12/28 00:32:36;;;;;;;3.35;1.73;;;6.80;99.90;;;;;;5049017;28;20040;-77
2020/12/28 00:35:04;;;;;;;1.90;1.80;;;6.70;99.90;;;;;;5051331;28;20542;-74
2020/12/28 00:37:30;;;;;;;2.00;1.90;;;6.80;99.90;;;;;;5043407;28;20060;-75
2020/12/28 00:39:55;;;;;;;2.05;1.83;;;6.80;99.90;;;;;;5043997;28;20449;-76
2020/12/28 00:42:21;;;;;;;2.60;2.40;;;6.80;99.90;;;;;;5041437;28;20056;-73
2020/12/28 00:44:47;;;;;;;2.95;2.22;;;6.80;99.90;;;;;;5048630;28;20075;-77
2020/12/28 00:47:12;;;;;;;2.50;2.30;;;6.90;99.90;;;;;;5047152;28;20075;-77
2020/12/28 00:49:38;;;;;;;2.10;1.90;;;6.90;99.90;;;;;;5044431;28;20021;-77
2020/12/28 00:52:04;;;;;;;2.80;2.00;;;6.80;99.90;;;;;;5041405;28;20033;-77
2020/12/28 00:54:29;;;;;;;2.33;2.13;;;6.80;99.90;;;;;;5044991;28;20021;-77
2020/12/28 00:56:55;;;;;;;2.05;1.80;;;6.80;99.90;;;;;;5051067;28;20107;-75
2020/12/28 00:59:20;;;;;;;2.35;1.92;;;6.90;99.90;;;;;;5043494;28;20044;-76
2020/12/28 01:01:46;;;;;;;3.35;2.53;;;6.80;99.90;;;;;;5040255;28;20076;-76
2020/12/28 01:04:12;;;;;;;1.90;1.80;;;6.80;99.90;;;;;;5046690;28;20029;-77
2020/12/28 01:06:43;;;;;;;3.38;1.90;;;6.80;99.90;;;;;;5047381;28;20032;-77
2020/12/28 01:09:09;;;;;;;2.30;2.08;;;6.70;99.90;;;;;;5045574;28;20029;-77
2020/12/28 01:11:35;;;;;;;3.75;1.77;;;6.80;99.90;;;;;;5042906;28;20086;-75
2020/12/28 01:14:00;;;;;;;2.15;1.80;;;6.80;99.90;;;;;;5039687;28;20040;-73
2020/12/28 01:16:27;;;;;;;2.88;2.00;;;6.80;99.90;;;;;;5046471;28;20477;-77
2020/12/28 01:18:52;;;;;;;5.55;2.33;;;6.80;99.90;;;;;;5041652;28;20025;-75
2020/12/28 01:21:21;;;;;;;2.60;1.88;;;6.90;99.90;;;;;;5046003;28;20030;-76
2020/12/28 01:23:48;;;;;;;4.78;2.00;;;6.90;99.90;;;;;;5046840;28;20025;-76
2020/12/28 01:26:18;;;;;;;2.20;1.80;;;6.90;99.90;;;;;;5038218;28;20025;-77
2020/12/28 01:28:44;;;;;;;2.70;1.52;;;6.90;99.90;;;;;;5045063;28;20087;-76
2020/12/28 01:31:10;;;;;;;2.33;1.92;;;6.90;99.90;;;;;;5044691;28;20551;-74
2020/12/28 01:33:37;;;;;;;4.05;2.60;;;6.90;99.90;;;;;;5048740;28;20029;-73
2020/12/28 01:36:03;;;;;;;2.90;1.98;;;6.80;99.90;;;;;;5043962;28;20068;-76
2020/12/28 01:38:29;;;;;;;2.70;2.17;;;6.80;99.90;;;;;;5045647;28;20082;-76
2020/12/28 01:40:57;;;;;;;2.75;2.55;;;6.70;99.90;;;;;;5043954;28;20033;-77
2020/12/28 01:43:24;;;;;;;3.25;2.95;;;6.70;99.90;;;;;;5048520;28;20075;-76
2020/12/28 01:45:50;;;;;;;2.80;2.50;;;6.70;99.90;;;;;;5047178;28;20025;-77
2020/12/28 01:48:17;;;;;;;3.17;2.70;;;6.60;99.90;;;;;;5051992;28;20039;-76
2020/12/28 01:50:42;;;;;;;2.55;2.35;;;6.70;99.90;;;;;;5051599;28;20033;-77
2020/12/28 01:53:08;;;;;;;3.67;3.38;;;6.70;99.90;;;;;;5046490;28;20033;-77
2020/12/28 01:55:34;;;;;;;5.20;2.50;;;6.70;99.90;;;;;;5044658;28;20029;-76
2020/12/28 01:58:00;;;;;;;3.45;3.00;;;6.60;99.90;;;;;;5051808;28;20020;-75
2020/12/28 02:00:26;;;;;;;2.50;2.30;;;6.70;99.90;;;;;;5048836;28;20028;-77
2020/12/28 02:02:52;;;;;;;2.28;2.08;;;6.60;99.90;;;;;;5044939;28;20029;-74
2020/12/28 02:05:18;;;;;;;2.45;2.13;;;6.60;99.90;;;;;;5043718;28;20505;-72
2020/12/28 02:07:45;;;;;;;2.28;1.67;;;6.50;99.90;;;;;;5042771;28;20041;-74
2020/12/28 02:10:11;;;;;;;2.45;1.92;;;6.50;99.90;;;;;;5051078;28;20496;-73
2020/12/28 02:12:38;;;;;;;2.70;2.50;;;6.50;99.90;;;;;;5042353;28;20075;-75
2020/12/28 02:15:06;;;;;;;2.00;1.80;;;6.50;99.90;;;;;;5050372;28;20021;-75
2020/12/28 02:17:32;;;;;;;1.92;1.80;;;6.50;99.90;;;;;;5045917;28;20090;-76
2020/12/28 02:19:58;;;;;;;3.65;2.22;;;6.40;99.90;;;;;;5042095;28;20117;-77
2020/12/28 02:22:24;;;;;;;2.30;2.10;;;6.50;99.90;;;;;;5045712;28;20147;-75
2020/12/28 02:24:49;;;;;;;5.40;2.58;;;6.50;99.90;;;;;;5046293;28;20017;-77
2020/12/28 02:27:15;;;;;;;2.85;2.17;;;6.50;99.90;;;;;;5048107;28;20064;-77
2020/12/28 02:29:41;;;;;;;4.28;2.38;;;6.60;99.90;;;;;;5043392;28;20087;-76
2020/12/28 02:32:06;;;;;;;1.98;1.83;;;6.50;99.90;;;;;;5038478;28;20079;-77
2020/12/28 02:34:32;;;;;;;2.83;2.53;;;6.60;99.90;;;;;;5061696;28;20025;-77
2020/12/28 02:36:58;;;;;;;2.55;2.28;;;6.60;99.90;;;;;;5043392;28;20467;-74
2020/12/28 02:39:23;;;;;;;2.70;2.50;;;6.60;99.90;;;;;;5045412;28;20490;-77
2020/12/28 02:41:49;;;;;;;2.70;2.50;;;6.60;99.90;;;;;;5050626;28;20051;-77
2020/12/28 02:44:14;;;;;;;2.40;2.20;;;6.60;99.90;;;;;;5049282;28;20055;-76
2020/12/28 02:46:40;;;;;;;3.72;2.58;;;6.50;99.90;;;;;;5047954;28;20461;-75
2020/12/28 02:49:06;;;;;;;3.97;2.50;;;6.60;99.90;;;;;;5047673;28;20087;-73
2020/12/28 02:51:31;;;;;;;2.92;2.60;;;6.50;99.90;;;;;;5046711;28;20033;-75
2020/12/28 02:53:57;;;;;;;3.88;2.70;;;6.50;99.90;;;;;;5052570;28;20468;-77
2020/12/28 02:56:23;;;;;;;2.63;2.42;;;6.50;99.90;;;;;;5043339;28;20434;-75
2020/12/28 02:58:48;;;;;;;3.95;3.40;;;6.50;99.90;;;;;;5048282;28;20021;-77
2020/12/28 03:01:14;;;;;;;5.93;3.60;;;6.50;99.90;;;;;;5048285;28;20028;-77
2020/12/28 03:03:40;;;;;;;3.13;2.83;;;6.40;99.90;;;;;;5050558;28;20409;-78
2020/12/28 03:06:05;;;;;;;5.75;4.15;;;6.40;99.90;;;;;;5047643;28;20025;-77
2020/12/28 03:08:31;;;;;;;3.33;3.03;;;6.40;99.90;;;;;;5042467;28;20036;-78
2020/12/28 03:10:56;;;;;;;4.45;3.45;;;6.50;99.90;;;;;;5045858;28;20030;-77
2020/12/28 03:13:22;;;;;;;3.78;3.00;;;6.50;99.90;;;;;;5045617;28;20389;-75
2020/12/28 03:15:48;;;;;;;5.55;5.00;;;6.50;99.90;;;;;;5046032;28;20081;-77
2020/12/28 03:18:13;;;;;;;3.47;2.80;;;6.50;99.90;;;;;;5048199;28;20116;-76
2020/12/28 03:20:39;;;;;;;3.15;2.85;;;6.50;99.90;;;;;;5049574;28;20473;-77
2020/12/28 03:23:04;;;;;;;4.95;3.47;;;6.40;99.90;;;;;;5047321;28;20026;-77
2020/12/28 03:25:30;;;;;;;5.00;2.78;;;6.50;99.90;;;;;;5046649;28;20119;-77
2020/12/28 03:27:56;;;;;;;3.65;3.03;;;6.40;99.90;;;;;;5045499;28;20486;-77
2020/12/28 03:30:21;;;;;;;3.83;2.88;;;6.50;99.90;;;;;;5046510;28;20466;-77
2020/12/28 03:32:47;;;;;;;4.13;3.00;;;6.50;99.90;;;;;;5047392;28;20112;-74
2020/12/28 03:35:13;;;;;;;3.72;2.85;;;6.50;99.90;;;;;;5047741;28;20021;-78
2020/12/28 03:37:38;;;;;;;3.30;3.00;;;6.50;99.90;;;;;;5050011;28;20056;-76
2020/12/28 03:40:04;;;;;;;3.95;2.97;;;6.50;99.90;;;;;;5051761;28;20021;-77
2020/12/28 03:42:30;;;;;;;4.50;2.67;;;6.50;99.90;;;;;;5042977;28;20497;-78
2020/12/28 03:44:55;;;;;;;7.40;4.70;;;6.50;99.90;;;;;;5046644;28;20025;-77
2020/12/28 03:47:21;;;;;;;5.15;3.92;;;6.50;99.90;;;;;;5049928;28;20110;-78
2020/12/28 03:49:47;;;;;;;9.40;3.80;;;6.50;99.90;;;;;;5048762;28;20028;-78
2020/12/28 03:52:13;;;;;;;9.52;4.55;;;6.40;99.90;;;;;;5041548;28;21224;-78
2020/12/28 03:54:39;;;;;;;15.00;10.18;;;6.40;99.90;;;;;;5046777;28;20024;-78
2020/12/28 03:57:05;;;;;;;7.63;4.68;;;6.30;99.90;;;;;;5046169;28;20025;-76
2020/12/28 03:59:30;;;;;;;6.15;4.35;;;6.40;99.90;;;;;;5044589;28;20048;-79
2020/12/28 04:01:56;;;;;;;8.05;4.88;;;6.50;99.90;;;;;;5046915;28;20120;-78
2020/12/28 04:04:22;;;;;;;11.85;5.30;;;6.60;99.90;;;;;;5048224;28;20025;-78
2020/12/28 04:06:47;;;;;;;12.13;5.82;;;6.50;99.90;;;;;;5046454;28;20029;-78
2020/12/28 04:09:13;;;;;;;11.60;6.30;;;6.60;99.90;;;;;;5048609;28;20071;-76
2020/12/28 04:11:39;;;;;;;11.45;6.10;;;6.60;99.90;;;;;;5046482;28;20108;-78
2020/12/28 04:14:04;;;;;;;15.05;6.07;;;6.60;99.90;;;;;;5046273;28;20092;-79
2020/12/28 04:16:30;;;;;;;9.32;5.63;;;6.60;99.90;;;;;;5048592;28;20024;-78
2020/12/28 04:18:55;;;;;;;9.10;4.90;;;6.60;99.90;;;;;;5044372;28;20025;-77
2020/12/28 04:21:21;;;;;;;10.15;5.32;;;6.60;99.90;;;;;;5047079;28;20033;-77
2020/12/28 04:23:46;;;;;;;13.27;6.32;;;6.50;99.90;;;;;;5050237;28;20017;-75
2020/12/28 04:26:12;;;;;;;12.13;6.20;;;6.50;99.90;;;;;;5047046;28;20029;-77
2020/12/28 04:28:38;;;;;;;14.45;6.28;;;6.50;99.90;;;;;;5046078;28;20114;-77
2020/12/28 04:31:08;;;;;;;14.18;5.53;;;6.40;99.90;;;;;;5044648;28;20548;-78
2020/12/28 04:33:34;;;;;;;13.73;6.22;;;6.30;99.90;;;;;;5038591;28;20053;-73
2020/12/28 04:36:00;;;;;;;15.63;6.60;;;6.20;99.90;;;;;;5040588;28;20071;-78
2020/12/28 04:38:25;;;;;;;10.38;5.43;;;6.30;99.90;;;;;;5044820;28;20097;-77
2020/12/28 04:40:51;;;;;;;14.75;5.72;;;6.30;99.90;;;;;;5043612;28;20045;-76
2020/12/28 04:43:17;;;;;;;12.77;5.88;;;6.30;99.90;;;;;;5036495;28;20041;-77
2020/12/28 04:45:43;;;;;;;12.80;5.50;;;6.30;99.90;;;;;;5043876;28;20078;-78
2020/12/28 04:48:09;;;;;;;9.63;5.47;;;6.30;99.90;;;;;;5036400;28;20034;-77
2020/12/28 04:50:36;;;;;;;11.93;5.13;;;6.20;99.90;;;;;;5050269;28;20037;-76
2020/12/28 04:53:03;;;;;;;10.63;4.28;;;6.20;99.90;;;;;;5041187;28;20393;-78
2020/12/28 04:55:30;;;;;;;9.68;4.78;;;6.10;99.90;;;;;;5043033;28;20033;-77
2020/12/28 04:57:56;;;;;;;6.30;5.03;;;6.00;99.90;;;;;;5049253;28;20037;-77
2020/12/28 05:00:21;;;;;;;9.85;5.00;;;5.80;99.90;;;;;;5041803;28;20497;-76
2020/12/28 05:02:47;;;;;;;8.75;5.30;;;5.70;99.90;;;;;;5041135;28;20024;-77
2020/12/28 05:05:13;;;;;;;13.07;4.57;;;5.70;99.90;;;;;;5044913;28;20105;-77
2020/12/28 05:07:39;;;;;;;11.40;5.45;;;5.70;99.90;;;;;;5043015;28;20116;-77
2020/12/28 05:10:05;;;;;;;10.57;5.50;;;5.70;99.90;;;;;;5047293;28;20032;-74
2020/12/28 05:12:31;;;;;;;8.07;4.32;;;5.60;99.90;;;;;;5047750;28;20164;-77
2020/12/28 05:15:07;;;;;;;9.48;5.15;;;5.60;99.90;;;;;;5048161;28;20511;-76
2020/12/28 05:17:33;;;;;;;8.48;5.03;;;5.60;99.90;;;;;;5046732;28;20021;-77
2020/12/28 05:20:00;;;;;;;10.27;5.00;;;5.70;99.90;;;;;;5050653;28;20017;-78
2020/12/28 05:22:30;;;;;;;12.35;4.93;;;5.60;99.90;;;;;;5048862;28;20029;-77
2020/12/28 05:24:56;;;;;;;6.97;5.15;;;5.70;99.90;;;;;;5053010;28;20033;-75
2020/12/28 05:27:23;;;;;;;10.82;4.28;;;5.60;99.90;;;;;;5051409;28;20029;-76
2020/12/28 05:29:50;;;;;;;6.90;4.38;;;5.50;99.90;;;;;;5045846;28;20028;-78
2020/12/28 05:32:16;;;;;;;9.85;4.25;;;5.30;99.90;;;;;;5045519;28;20024;-77
2020/12/28 05:34:46;;;;;;;11.00;4.20;;;5.10;99.90;;;;;;5042217;28;20089;-76
2020/12/28 05:37:16;;;;;;;7.70;4.60;;;5.10;99.90;;;;;;5049718;28;20029;-74
2020/12/28 05:39:42;;;;;;;6.63;4.10;;;5.00;99.90;;;;;;5047215;28;20036;-74
2020/12/28 05:42:09;;;;;;;13.55;5.00;;;5.00;99.90;;;;;;5045535;28;20033;-77
2020/12/28 05:44:44;;;;;;;7.85;5.40;;;5.00;99.90;;;;;;5054752;28;20029;-76
2020/12/28 05:47:15;;;;;;;7.75;4.68;;;5.00;99.90;;;;;;5051432;28;20036;-77
2020/12/28 05:49:45;;;;;;;9.00;4.85;;;5.10;99.90;;;;;;5047316;28;20469;-75
2020/12/28 05:52:13;;;;;;;7.97;5.47;;;5.10;99.90;;;;;;5043274;28;20028;-77
2020/12/28 05:54:39;;;;;;;9.77;6.03;;;5.10;99.90;;;;;;5050628;28;20017;-74
2020/12/28 05:57:06;;;;;;;5.47;4.53;;;5.10;99.90;;;;;;5045045;28;20029;-77
2020/12/28 05:59:32;;;;;;;9.25;4.50;;;5.10;99.90;;;;;;5048699;28;20040;-77
2020/12/28 06:01:59;;;;;;;9.38;4.22;;;5.10;99.90;;;;;;5048886;28;20021;-76
2020/12/28 06:04:26;;;;;;;7.00;4.25;;;5.00;99.90;;;;;;5046342;28;20033;-77
2020/12/28 06:07:00;;;;;;;5.28;4.05;;;4.90;99.90;;;;;;5044678;28;20053;-77
2020/12/28 06:09:26;;;;;;;5.47;4.03;;;4.90;99.90;;;;;;5049462;28;20119;-76
2020/12/28 06:12:06;;;;;;;9.18;4.80;;;4.80;99.90;;;;;;5050499;28;20120;-77
2020/12/28 06:14:37;;;;;;;8.77;4.78;;;4.80;99.90;;;;;;5039749;28;20047;-76
2020/12/28 06:17:08;;;;;;;7.68;4.68;;;4.70;99.90;;;;;;5046283;28;20053;-78
2020/12/28 06:19:35;;;;;;;7.88;4.82;;;4.80;99.90;;;;;;5039725;28;20108;-78
2020/12/28 06:22:00;;;;;;;6.53;5.38;;;4.80;99.90;;;;;;5043344;28;20059;-77
2020/12/28 06:24:33;;;;;;;8.40;5.40;;;4.80;99.90;;;;;;5044851;28;20470;-77
2020/12/28 06:27:03;;;;;;;9.35;5.50;;;4.90;99.90;;;;;;5042369;28;20041;-78
2020/12/28 06:29:29;;;;;;;9.00;4.80;;;5.00;99.90;;;;;;5043888;28;20034;-78
2020/12/28 06:31:55;;;;;;;9.25;5.28;;;5.10;99.90;;;;;;5047044;28;20478;-77
2020/12/28 06:34:21;;;;;;;9.55;5.13;;;5.20;99.90;;;;;;5044614;28;20086;-77
2020/12/28 06:36:57;;;;;;;7.97;4.97;;;5.10;99.90;;;;;;5046618;28;20116;-78
2020/12/28 06:39:23;;;;;;;7.57;5.18;;;5.10;99.90;;;;;;5049451;28;20057;-77
2020/12/28 06:41:49;;;;;;;8.05;4.25;;;5.00;99.90;;;;;;5045637;28;20044;-78
2020/12/28 06:44:25;;;;;;;6.35;4.43;;;4.90;99.90;;;;;;5049878;28;20647;-78
2020/12/28 06:46:51;;;;;;;8.00;5.10;;;4.80;99.90;;;;;;5046968;28;20026;-78
2020/12/28 06:49:17;;;;;;;7.65;4.70;;;4.80;99.90;;;;;;5042833;28;20052;-77
2020/12/28 06:51:42;;;;;;;7.82;5.07;;;4.70;99.90;;;;;;5046426;28;20033;-78
2020/12/28 06:54:08;;;;;;;8.98;4.80;;;4.70;99.90;;;;;;5045304;28;20030;-77
2020/12/28 06:56:34;;;;;;;6.55;4.35;;;4.70;99.90;;;;;;5048108;28;20025;-76
2020/12/28 06:59:01;;;;;;;8.68;4.97;;;4.70;99.90;;;;;;5050836;28;20037;-74
2020/12/28 07:01:28;;;;;;;8.15;4.43;;;4.70;99.90;;;;;;5046655;28;20022;-77
2020/12/28 07:03:54;;;;;;;7.10;4.60;;;4.70;99.90;;;;;;5045278;28;20083;-77
2020/12/28 07:06:20;;;;;;;10.75;5.30;;;4.60;99.90;;;;;;5052736;28;20021;-75
2020/12/28 07:08:46;;;;;;;7.00;4.50;;;4.70;99.90;;;;;;5040044;28;20033;-78
2020/12/28 07:11:18;;;;;;;9.20;4.80;;;4.70;99.90;;;;;;5040922;28;20105;-77
2020/12/28 07:13:47;;;;;;;14.43;5.70;;;4.60;99.90;;;;;;5039273;28;20033;-78
2020/12/28 07:16:13;;;;;;;9.00;4.45;;;4.60;99.90;;;;;;5038800;28;20542;-73
2020/12/28 07:18:39;;;;;;;9.57;5.10;;;4.70;99.90;;;;;;5042201;28;20101;-76
2020/12/28 07:21:06;;;;;;;9.88;5.82;;;4.70;99.90;;;;;;5044432;28;20041;-78
2020/12/28 07:23:33;;;;;;;9.70;5.60;;;4.70;99.90;;;;;;5037603;28;20024;-78
2020/12/28 07:26:10;;;;;;;7.40;4.95;;;4.70;99.90;;;;;;5041008;28;20083;-79
2020/12/28 07:28:37;;;;;;;8.65;5.05;;;4.80;99.90;;;;;;5041576;28;20116;-79
2020/12/28 07:31:05;;;;;;;5.95;4.30;;;4.70;99.90;;;;;;5038664;28;20022;-77
2020/12/28 07:33:33;;;;;;;9.73;5.90;;;4.60;99.90;;;;;;5050304;28;20037;-78
2020/12/28 07:36:05;;;;;;;7.55;4.45;;;4.60;99.90;;;;;;5046987;28;20549;-79
2020/12/28 07:38:30;;;;;;;8.60;4.55;;;4.60;99.90;;;;;;5048156;28;20039;-76
2020/12/28 07:40:56;;;;;;;11.20;5.35;;;4.70;99.90;;;;;;5045324;28;20373;-78
2020/12/28 07:43:22;;;;;;;8.15;4.85;;;4.60;99.90;;;;;;5038825;28;20040;-78
2020/12/28 07:45:48;;;;;;;7.55;4.53;;;4.60;99.90;;;;;;5044774;28;20049;-78
2020/12/28 07:48:18;;;;;;;6.50;5.18;;;4.60;99.90;;;;;;5043606;28;20106;-76
2020/12/28 07:50:46;;;;;;;8.35;4.63;;;4.40;99.90;;;;;;5048682;28;20485;-78
2020/12/28 07:53:17;;;;;;;6.97;5.65;;;4.50;99.90;;;;;;5045708;28;20032;-79
2020/12/28 07:55:48;;;;;;;11.10;5.30;;;4.50;99.90;;;;;;5044874;28;20031;-78
2020/12/28 07:58:31;;;;;;;8.98;5.70;;;4.40;99.90;;;;;;5050431;28;20664;-78
2020/12/28 08:01:00;;;;;;;11.88;6.07;;;4.40;99.90;;;;;;5045410;28;20080;-78
2020/12/28 08:03:29;;;;;;;8.70;4.65;;;4.40;99.90;;;;;;5030548;28;20014;-78
2020/12/28 08:05:59;;;;;;;12.60;5.85;;;4.40;99.90;;;;;;5041181;28;20025;-76
2020/12/28 08:08:26;;;;;;;8.23;5.22;;;4.50;99.90;;;;;;5039356;28;20033;-77
2020/12/28 08:10:54;;;;;;;8.68;5.25;;;4.50;99.90;;;;;;5036357;28;20112;-75
2020/12/28 08:13:38;;;;;;;9.82;5.25;;;4.50;99.90;;;;;;5045848;28;20451;-78
2020/12/28 08:16:07;;;;;;;9.32;5.80;;;4.50;99.90;;;;;;5049292;28;20021;-77
2020/12/28 08:18:53;;;;;;;8.30;4.90;;;4.30;99.90;;;;;;5045175;28;20025;-77
2020/12/28 08:21:19;;;;;;;6.78;4.97;;;4.10;99.90;;;;;;5047512;28;20043;-78
2020/12/28 08:23:59;;;;;;;8.25;4.55;;;4.10;99.90;;;;;;5049618;28;20084;-78
2020/12/28 08:26:27;;;;;;;11.48;5.43;;;4.10;99.90;;;;;;5044661;28;20037;-78
2020/12/28 08:28:55;;;;;;;9.88;4.70;;;4.10;99.90;;;;;;5045522;28;20486;-78
2020/12/28 08:31:35;;;;;;;9.85;5.07;;;4.00;99.90;;;;;;5046385;28;20387;-77
2020/12/28 08:34:19;;;;;;;11.40;4.63;;;4.00;99.90;;;;;;5036120;28;20048;-78
2020/12/28 08:36:53;;;;;;;9.55;4.43;;;4.20;99.90;;;;;;5040919;28;20021;-78
2020/12/28 08:39:20;;;;;;;10.88;4.75;;;4.20;99.90;;;;;;5046287;28;20030;-77
2020/12/28 08:42:00;;;;;;;8.10;4.72;;;4.20;99.90;;;;;;5046806;28;20115;-73
2020/12/28 08:44:28;;;;;;;8.32;5.13;;;4.20;99.90;;;;;;5045376;28;20591;-72
2020/12/28 08:46:54;;;;;;;10.18;5.07;;;4.30;99.90;;;;;;5036502;28;20045;-73
2020/12/28 08:49:33;;;;;;;9.73;5.60;;;4.40;99.90;;;;;;5037506;28;20017;-77
2020/12/28 08:52:15;;;;;;;9.43;5.15;;;4.40;99.90;;;;;;5042057;28;20117;-72
2020/12/28 08:54:43;;;;;;;10.02;5.32;;;4.30;99.90;;;;;;5039970;28;20032;-72
2020/12/28 08:57:22;;;;;;;7.82;4.45;;;4.30;99.90;;;;;;5044301;28;20048;-73
2020/12/28 08:59:48;;;;;;;13.30;5.03;;;4.40;99.90;;;;;;5037500;28;20036;-73
2020/12/28 09:02:18;;;;;;;15.35;5.28;;;4.40;99.90;;;;;;5039656;28;20394;-73
2020/12/28 09:04:45;;;;;;;9.63;5.03;;;4.40;99.90;;;;;;5042300;28;20028;-73
2020/12/28 09:07:11;;;;;;;12.05;5.32;;;4.50;99.90;;;;;;5042637;28;20029;-73
2020/12/28 09:09:40;;;;;;;13.10;5.28;;;4.50;99.90;;;;;;5042190;28;20029;-74
2020/12/28 09:12:06;;;;;;;10.13;5.43;;;4.60;99.90;;;;;;5036640;28;20044;-75
2020/12/28 09:14:50;;;;;;;15.50;6.75;;;4.60;99.90;;;;;;5044908;28;20037;-74
2020/12/28 09:17:16;;;;;;;12.73;5.00;;;4.60;99.90;;;;;;5034455;28;20478;-77
2020/12/28 09:19:41;;;;;;;13.23;6.38;;;4.60;99.90;;;;;;5038590;28;20037;-77
2020/12/28 09:22:07;;;;;;;14.98;7.47;;;4.60;99.90;;;;;;5042262;28;20032;-76
2020/12/28 09:24:33;;;;;;;10.57;6.28;;;4.60;99.90;;;;;;5038307;28;20025;-74
2020/12/28 09:26:58;;;;;;;12.82;6.38;;;4.70;99.90;;;;;;5048749;28;20131;-74
2020/12/28 09:29:25;;;;;;;17.88;6.53;;;4.70;99.90;;;;;;5049920;28;20492;-73
2020/12/28 09:31:51;;;;;;;11.35;6.70;;;4.70;99.90;;;;;;5041522;28;20021;-72
2020/12/28 09:34:16;;;;;;;11.15;6.00;;;4.80;99.90;;;;;;5046740;28;20025;-72
2020/12/28 09:36:42;;;;;;;11.75;5.35;;;4.70;99.90;;;;;;5047433;28;20537;-72
2020/12/28 09:39:08;;;;;;;11.25;5.93;;;4.70;99.90;;;;;;5050847;28;20434;-73
2020/12/28 09:41:34;;;;;;;8.88;5.38;;;4.80;99.90;;;;;;5042163;28;20029;-74
2020/12/28 09:43:59;;;;;;;13.23;5.72;;;4.80;99.90;;;;;;5052834;28;20040;-73
2020/12/28 09:46:25;;;;;;;11.35;5.10;;;4.90;99.90;;;;;;5050401;28;20474;-72
2020/12/28 09:48:50;;;;;;;11.32;4.95;;;4.80;99.90;;;;;;5050455;28;20049;-73
2020/12/28 09:51:17;;;;;;;9.45;4.55;;;5.00;99.90;;;;;;5049721;28;20032;-74
2020/12/28 09:53:43;;;;;;;7.47;4.60;;;5.10;99.90;;;;;;5044608;28;20030;-72
2020/12/28 09:56:11;;;;;;;9.40;4.50;;;5.20;99.90;;;;;;5041241;28;20382;-78
2020/12/28 09:58:38;;;;;;;11.13;5.15;;;5.30;99.90;;;;;;5050702;28;20024;-72
2020/12/28 10:01:08;;;;;;;9.13;5.47;;;5.30;99.90;;;;;;5052160;28;20036;-73
2020/12/28 10:03:37;;;;;;;8.80;5.13;;;5.30;99.90;;;;;;5049740;28;20036;-73
2020/12/28 10:06:30;;;;;;;9.52;4.35;;;5.30;99.90;;;;;;5050926;28;20461;-74
2020/12/28 10:08:48;;;;;;;10.20;5.22;;;5.40;99.90;;;;;;5050600;28;20390;-73
2020/12/28 10:11:14;;;;;;;10.48;5.57;;;5.40;99.90;;;;;;5048847;28;20025;-74
2020/12/28 10:13:40;;;;;;;11.00;5.68;;;5.40;99.90;;;;;;5048080;28;20033;-73
2020/12/28 10:16:05;;;;;;;9.52;5.80;;;5.40;99.90;;;;;;5050085;28;20037;-75
2020/12/28 10:18:40;;;;;;;7.45;4.55;;;5.40;99.90;;;;;;5052948;28;20509;-76
2020/12/28 10:21:09;;;;;;;10.02;4.85;;;5.50;99.90;;;;;;5058006;28;20030;-73
2020/12/28 10:23:35;;;;;;;10.55;5.40;;;5.50;99.90;;;;;;5051121;28;20107;-72
2020/12/28 10:26:13;;;;;;;6.90;3.92;;;5.60;99.90;;;;;;5048105;28;20060;-73
2020/12/28 10:28:38;;;;;;;7.13;3.70;;;5.50;99.90;;;;;;5047136;28;20049;-72
2020/12/28 10:31:08;;;;;;;8.60;4.28;;;5.60;99.90;;;;;;5049883;28;20021;-73
2020/12/28 10:33:33;;;;;;;9.80;4.55;;;5.60;99.90;;;;;;5045762;28;20032;-74
2020/12/28 10:35:59;;;;;;;8.13;3.58;;;5.80;99.90;;;;;;5051889;28;20029;-75
2020/12/28 10:38:25;;;;;;;8.88;3.63;;;5.80;99.90;;;;;;5042027;28;20040;-75
2020/12/28 10:40:50;;;;;;;7.05;3.80;;;5.80;99.90;;;;;;5047073;28;20045;-76
2020/12/28 10:43:17;;;;;;;7.97;3.53;;;5.70;99.90;;;;;;5045378;28;20029;-76
2020/12/28 10:45:43;;;;;;;10.07;4.00;;;5.80;99.90;;;;;;5044391;28;20021;-74
2020/12/28 10:48:08;;;;;;;4.45;3.30;;;5.90;99.90;;;;;;5044156;28;20508;-77
2020/12/28 10:50:34;;;;;;;7.28;3.08;;;5.80;99.90;;;;;;5049343;28;20030;-77
2020/12/28 10:53:00;;;;;;;6.78;3.95;;;5.90;99.90;;;;;;5045208;28;20513;-73
2020/12/28 10:55:26;;;;;;;6.22;3.65;;;5.90;99.90;;;;;;5043368;28;20064;-75
2020/12/28 10:57:51;;;;;;;10.60;3.00;;;5.90;99.90;;;;;;5045887;28;20033;-75
2020/12/28 11:00:17;;;;;;;11.02;3.97;;;5.90;99.90;;;;;;5050937;28;20511;-74
2020/12/28 11:02:42;;;;;;;5.90;2.78;;;6.00;99.90;;;;;;5047771;28;20029;-73
2020/12/28 11:05:08;;;;;;;3.50;2.67;;;6.00;99.90;;;;;;5047128;28;20050;-75
2020/12/28 11:07:34;;;;;;;4.00;2.28;;;6.10;99.90;;;;;;5047336;28;20029;-76
2020/12/28 11:10:00;;;;;;;5.40;3.20;;;6.10;99.90;;;;;;5049398;28;20037;-72
2020/12/28 11:12:25;;;;;;;7.65;2.80;;;6.10;99.90;;;;;;5047566;28;20044;-75
2020/12/28 11:14:51;;;;;;;6.40;2.88;;;6.20;99.90;;;;;;5044870;28;20037;-78
2020/12/28 11:17:17;;;;;;;5.82;2.50;;;6.30;99.90;;;;;;5047267;28;20024;-79
2020/12/28 11:19:42;;;;;;;3.30;2.10;;;6.20;99.90;;;;;;5047757;28;20037;-79
2020/12/28 11:22:08;;;;;;;7.97;3.05;;;6.30;99.90;;;;;;5042799;28;20071;-73
2020/12/28 11:24:33;;;;;;;5.78;2.90;;;6.30;99.90;;;;;;5048541;28;20052;-74
2020/12/28 11:26:59;;;;;;;8.55;2.97;;;6.30;99.90;;;;;;5047068;28;20033;-74
2020/12/28 11:29:25;;;;;;;3.80;2.25;;;6.40;99.90;;;;;;5044830;28;20029;-74
2020/12/28 11:31:50;;;;;;;3.97;2.95;;;6.40;99.90;;;;;;5045021;28;20032;-74
2020/12/28 11:34:16;;;;;;;4.68;2.65;;;6.40;99.90;;;;;;5047929;28;20041;-74
2020/12/28 11:36:42;;;;;;;6.05;1.90;;;6.40;99.90;;;;;;5042406;28;20040;-73
2020/12/28 11:39:11;;;;;;;3.28;2.50;;;6.50;99.90;;;;;;5044975;28;20104;-73
2020/12/28 11:41:38;;;;;;;3.47;2.00;;;6.50;99.90;;;;;;5043342;28;20028;-73
2020/12/28 11:44:04;;;;;;;5.15;2.53;;;6.60;99.90;;;;;;5046907;28;20294;-72
2020/12/28 11:46:29;;;;;;;4.78;2.10;;;6.50;99.90;;;;;;5049056;28;20100;-74
2020/12/28 11:48:55;;;;;;;7.20;2.30;;;6.50;99.90;;;;;;5052342;28;20485;-73
2020/12/28 11:51:22;;;;;;;4.20;1.90;;;6.50;99.90;;;;;;5049518;28;20025;-73
2020/12/28 11:53:47;;;;;;;3.88;1.88;;;6.50;99.90;;;;;;5044604;28;20024;-74
2020/12/28 11:56:13;;;;;;;6.47;2.58;;;6.40;99.90;;;;;;5042596;28;20645;-72
2020/12/28 11:58:44;;;;;;;7.07;2.10;;;6.50;99.90;;;;;;5050579;28;20028;-73
2020/12/28 12:01:15;;;;;;;3.75;2.58;;;6.50;99.90;;;;;;5041223;28;20024;-73
2020/12/28 12:03:43;;;;;;;6.50;2.05;;;6.50;99.90;;;;;;5042204;28;20422;-79
2020/12/28 12:06:17;;;;;;;24.25;3.53;;;6.50;99.90;;;;;;5049400;28;20504;-75
2020/12/28 12:11:30;;;;;;;7.47;2.65;;;6.40;99.90;;;;;;5045655;28;20039;-79
2020/12/28 12:13:55;;;;;;;3.63;2.20;;;6.40;99.90;;;;;;5045624;28;20437;-78
2020/12/28 12:16:25;;;;;;;3.85;2.30;;;6.50;99.90;;;;;;5041474;28;20120;-79
2020/12/28 12:18:51;;;;;;;4.68;2.28;;;6.50;99.90;;;;;;5037586;28;20017;-79
2020/12/28 12:21:17;;;;;;;6.72;2.53;;;6.50;99.90;;;;;;5042753;28;20096;-75
2020/12/28 12:23:42;;;;;;;4.47;2.45;;;6.50;99.90;;;;;;5039184;28;20028;-77
2020/12/28 12:26:08;;;;;;;4.30;2.50;;;6.60;99.90;;;;;;5045370;28;20025;-76
2020/12/28 12:28:34;;;;;;;3.38;2.58;;;6.60;99.90;;;;;;5043833;28;20045;-75
2020/12/28 12:31:00;;;;;;;6.38;3.00;;;6.60;99.90;;;;;;5045362;28;20067;-75
2020/12/28 12:33:26;;;;;;;4.07;2.50;;;6.60;99.90;;;;;;5046971;28;20040;-76
2020/12/28 12:35:52;;;;;;;3.90;2.35;;;6.60;99.90;;;;;;5047684;28;20025;-77
2020/12/28 12:38:18;;;;;;;4.32;2.80;;;6.70;99.90;;;;;;5047371;28;20064;-79
2020/12/28 12:40:44;;;;;;;4.15;2.55;;;6.70;99.90;;;;;;5039265;28;20461;-80
2020/12/28 12:43:09;;;;;;;3.05;2.33;;;6.80;99.90;;;;;;5044625;28;20036;-77
2020/12/28 12:45:36;;;;;;;5.80;2.28;;;6.80;99.90;;;;;;5047443;28;20095;-80
2020/12/28 12:48:01;;;;;;;3.60;2.17;;;6.90;99.90;;;;;;5039762;28;20436;-75
2020/12/28 12:50:27;;;;;;;2.90;2.20;;;6.90;99.90;;;;;;5046296;28;20022;-73
2020/12/28 12:52:53;;;;;;;3.67;2.58;;;7.00;99.90;;;;;;5045670;28;20039;-76
2020/12/28 12:55:18;;;;;;;4.85;2.67;;;7.00;99.90;;;;;;5043747;28;20060;-74
2020/12/28 12:57:44;;;;;;;5.35;2.80;;;6.90;99.90;;;;;;5042874;28;20032;-75